Aviation Digital Data Service (ADDS)

Output produced by METARs form (1020 UTC 28 September 2021)
found at http://www.aviationweather.gov/metar/data/
 
KSTC 280953Z AUTO 10003KT 10SM CLR 09/08 A2991 RMK AO2 SLP136 T00940083
KSTC 280520Z 2806/2906 11004KT P6SM SKC 
     FM281500 16008KT P6SM SKC
       
KBRD 280953Z AUTO 00000KT 10SM CLR 10/08 A2991 RMK AO2 SLP129 T01000078 TSNO
KBRD 280535Z 2806/2906 14004KT P6SM FEW200 
     TEMPO 2809/2813 6SM BR 
     FM281400 17007G15KT P6SM FEW250 
     FM282300 16007KT P6SM SKC